createdAt,value
2022-12-04T00:01:28.090Z,88.84
2022-12-04T00:04:01.699Z,89.07
2022-12-04T00:06:30.164Z,89.55
2022-12-04T00:08:58.161Z,89.29
2022-12-04T00:11:29.736Z,89.19
2022-12-04T00:14:04.845Z,89.02
2022-12-04T00:16:35.545Z,88.87
2022-12-04T00:19:04.754Z,89.00
2022-12-04T00:21:33.165Z,89.03
2022-12-04T00:24:01.308Z,88.96
2022-12-04T00:26:31.382Z,88.99
2022-12-04T00:29:00.368Z,89.16
2022-12-04T00:31:30.759Z,89.34
2022-12-04T00:34:00.366Z,89.57
2022-12-04T00:36:30.075Z,89.51
2022-12-04T00:38:59.671Z,89.56
2022-12-04T00:41:29.723Z,89.68
2022-12-04T00:43:58.663Z,89.69
2022-12-04T00:46:27.442Z,89.58
2022-12-04T00:48:55.868Z,89.45
2022-12-04T00:51:25.576Z,89.34
2022-12-04T00:53:54.050Z,89.14
2022-12-04T00:56:25.809Z,89.10
2022-12-04T00:58:57.271Z,89.10
2022-12-04T01:01:26.602Z,89.06
2022-12-04T01:03:55.867Z,88.78
2022-12-04T01:06:28.233Z,87.85
2022-12-04T01:08:58.210Z,87.48
2022-12-04T01:11:28.237Z,87.37
2022-12-04T01:13:57.747Z,87.78
2022-12-04T01:16:28.336Z,88.00
2022-12-04T01:18:56.900Z,87.91
2022-12-04T01:21:25.107Z,87.83
2022-12-04T01:23:53.645Z,87.92
2022-12-04T01:26:22.335Z,87.91
2022-12-04T01:28:50.399Z,87.93
2022-12-04T01:31:21.275Z,87.84
2022-12-04T01:33:50.227Z,87.94
2022-12-04T01:36:21.716Z,88.06
2022-12-04T01:38:50.264Z,88.10
2022-12-04T01:41:22.842Z,88.15
2022-12-04T01:44:20.411Z,88.10
2022-12-04T01:46:59.778Z,88.23
2022-12-04T01:49:38.499Z,88.28
2022-12-04T01:52:20.573Z,88.28
2022-12-04T01:54:56.106Z,88.26
2022-12-04T01:57:28.195Z,88.19
2022-12-04T02:00:00.398Z,88.06
2022-12-04T02:02:38.058Z,88.08
2022-12-04T02:05:10.515Z,88.01
2022-12-04T02:07:40.572Z,88.02
2022-12-04T02:10:10.104Z,88.12
2022-12-04T02:12:51.013Z,88.10
2022-12-04T02:15:24.211Z,88.09
2022-12-04T02:18:01.296Z,88.15
2022-12-04T02:20:35.300Z,88.05
2022-12-04T02:23:06.340Z,88.04
2022-12-04T02:25:59.589Z,88.04
2022-12-04T02:28:43.617Z,88.11
2022-12-04T02:31:17.219Z,88.08
2022-12-04T02:34:01.607Z,88.02
2022-12-04T02:36:34.388Z,88.12
2022-12-04T02:39:20.689Z,88.13
2022-12-04T02:41:57.770Z,87.97
2022-12-04T02:44:38.530Z,87.73
2022-12-04T02:47:12.245Z,87.45
2022-12-04T02:50:00.248Z,87.37
2022-12-04T02:52:39.004Z,87.58
2022-12-04T02:55:20.285Z,87.60
2022-12-04T02:57:58.410Z,87.44
2022-12-04T03:00:27.999Z,87.51
2022-12-04T03:02:56.157Z,87.71
2022-12-04T03:05:56.745Z,87.90
2022-12-04T03:08:39.533Z,88.10
2022-12-04T03:11:08.825Z,88.15
2022-12-04T03:13:44.785Z,88.06
2022-12-04T03:16:31.153Z,88.11
2022-12-04T03:19:04.685Z,88.08
2022-12-04T03:21:38.591Z,88.21
2022-12-04T03:24:07.163Z,88.03
2022-12-04T03:26:41.648Z,88.01
2022-12-04T03:29:12.429Z,87.90
2022-12-04T03:31:46.751Z,87.92
2022-12-04T03:34:26.189Z,87.85
2022-12-04T03:36:59.489Z,87.40
2022-12-04T03:39:42.101Z,87.13
2022-12-04T03:42:16.314Z,86.70
2022-12-04T03:45:09.066Z,86.90
2022-12-04T03:48:09.101Z,86.67
2022-12-04T03:50:39.108Z,86.84
2022-12-04T03:53:22.124Z,86.92
2022-12-04T03:56:20.097Z,86.76
2022-12-04T03:59:00.152Z,86.75
2022-12-04T04:01:34.203Z,86.74
2022-12-04T04:04:07.740Z,86.82
2022-12-04T04:06:44.543Z,86.74
2022-12-04T04:09:22.987Z,86.80
2022-12-04T04:12:18.675Z,86.40
2022-12-04T04:15:20.306Z,86.16
2022-12-04T04:18:09.501Z,86.48
2022-12-04T04:20:59.859Z,86.83
2022-12-04T04:23:53.191Z,87.00
2022-12-04T04:26:23.807Z,87.13
2022-12-04T04:28:51.861Z,87.14
2022-12-04T04:31:48.913Z,86.78
2022-12-04T04:34:31.042Z,86.44
2022-12-04T04:37:21.728Z,86.37
2022-12-04T04:40:05.891Z,86.67
2022-12-04T04:42:47.459Z,86.49
2022-12-04T04:45:25.490Z,86.64
2022-12-04T04:48:02.498Z,86.56
2022-12-04T04:50:33.290Z,86.65
2022-12-04T04:53:06.282Z,86.69
2022-12-04T04:55:36.286Z,86.81
2022-12-04T04:58:16.561Z,86.99
2022-12-04T05:01:07.637Z,86.84
2022-12-04T05:03:36.240Z,86.74
2022-12-04T05:06:04.860Z,86.67
2022-12-04T05:08:33.853Z,86.83
2022-12-04T05:11:02.880Z,86.78
2022-12-04T05:13:32.004Z,86.69
2022-12-04T05:16:05.489Z,86.89
2022-12-04T05:18:34.974Z,86.87
2022-12-04T05:21:18.748Z,86.95
2022-12-04T05:23:46.854Z,86.76
2022-12-04T05:26:14.894Z,86.44
2022-12-04T05:28:42.964Z,86.44
2022-12-04T05:31:11.049Z,86.38
2022-12-04T05:33:39.418Z,85.93
2022-12-04T05:36:10.065Z,86.05
2022-12-04T05:38:38.324Z,86.15
2022-12-04T05:41:07.526Z,86.19
2022-12-04T05:43:35.629Z,86.45
2022-12-04T05:46:05.934Z,86.68
2022-12-04T05:48:35.737Z,86.85
2022-12-04T05:51:08.399Z,86.90
2022-12-04T05:53:37.380Z,86.87
2022-12-04T05:56:07.783Z,86.86
2022-12-04T05:58:37.849Z,86.88
2022-12-04T06:01:15.138Z,86.65
2022-12-04T06:03:43.899Z,86.81
2022-12-04T06:06:21.780Z,86.92
2022-12-04T06:08:53.080Z,86.89
2022-12-04T06:11:39.508Z,87.04
2022-12-04T06:14:12.875Z,87.78
2022-12-04T06:16:44.230Z,87.82
2022-12-04T06:19:17.518Z,87.68
2022-12-04T06:21:48.323Z,87.61
2022-12-04T06:24:19.811Z,87.50
2022-12-04T06:27:18.760Z,87.37
2022-12-04T06:29:37.251Z,87.52
2022-12-04T06:32:05.487Z,87.60
2022-12-04T06:34:33.936Z,87.99
2022-12-04T06:37:02.287Z,88.22
2022-12-04T06:39:30.398Z,88.43
2022-12-04T06:41:58.566Z,88.41
2022-12-04T06:44:26.846Z,88.22
2022-12-04T06:46:55.081Z,88.26
2022-12-04T06:49:23.259Z,88.24
2022-12-04T06:51:51.561Z,88.26
2022-12-04T06:54:19.915Z,88.22
2022-12-04T06:56:49.731Z,88.31
2022-12-04T06:59:18.052Z,88.32
2022-12-04T07:01:46.392Z,88.32
2022-12-04T07:04:14.424Z,88.15
2022-12-04T07:06:42.594Z,88.29
2022-12-04T07:09:14.192Z,88.12
2022-12-04T07:11:44.220Z,87.92
2022-12-04T07:14:13.335Z,87.27
2022-12-04T07:16:42.683Z,87.00
2022-12-04T07:19:13.708Z,87.10
2022-12-04T07:21:43.141Z,87.00
2022-12-04T07:24:17.297Z,86.98
2022-12-04T07:26:46.295Z,86.71
2022-12-04T07:29:14.669Z,86.47
2022-12-04T07:31:44.519Z,86.32
2022-12-04T07:34:12.962Z,86.07
2022-12-04T07:36:41.148Z,85.86
2022-12-04T07:39:09.929Z,85.98
2022-12-04T07:41:38.045Z,85.17
2022-12-04T07:44:07.501Z,84.77
2022-12-04T07:46:35.888Z,84.88
2022-12-04T07:49:04.466Z,85.06
2022-12-04T07:51:32.673Z,85.15
2022-12-04T07:54:03.667Z,84.88
2022-12-04T07:56:33.714Z,84.61
2022-12-04T07:59:02.607Z,84.44
2022-12-04T08:01:31.536Z,84.20
2022-12-04T08:04:01.146Z,84.03
2022-12-04T08:06:30.492Z,82.76
2022-12-04T08:08:58.695Z,81.50
2022-12-04T08:11:28.789Z,80.88
2022-12-04T08:13:59.517Z,78.82
2022-12-04T08:16:29.134Z,78.06
2022-12-04T08:18:58.343Z,74.94
2022-12-04T08:21:30.489Z,72.04
2022-12-04T08:24:00.777Z,72.90
2022-12-04T08:26:30.885Z,73.26
2022-12-04T08:29:01.317Z,70.11
2022-12-04T08:31:31.611Z,67.37
2022-12-04T08:34:02.943Z,64.71
2022-12-04T08:36:31.378Z,63.41
2022-12-04T08:38:59.803Z,62.45
2022-12-04T08:41:28.178Z,62.40
2022-12-04T08:43:56.608Z,58.52
2022-12-04T08:46:27.239Z,57.98
2022-12-04T08:48:56.256Z,55.41
2022-12-04T08:51:27.538Z,51.93
2022-12-04T08:53:57.350Z,51.30
2022-12-04T08:56:26.588Z,54.02
2022-12-04T08:58:56.453Z,54.35
2022-12-04T09:01:25.889Z,51.90
2022-12-04T09:03:54.950Z,52.87
2022-12-04T09:06:24.269Z,51.82
2022-12-04T09:08:53.863Z,49.25
2022-12-04T09:11:24.544Z,47.66
2022-12-04T09:13:53.704Z,45.57
2022-12-04T09:16:22.870Z,46.02
2022-12-04T09:18:51.812Z,45.83
2022-12-04T09:21:22.209Z,42.19
2022-12-04T09:23:51.043Z,42.17
2022-12-04T09:26:25.828Z,41.24
2022-12-04T09:28:55.594Z,41.08
2022-12-04T09:31:25.093Z,36.48
2022-12-04T09:33:54.245Z,39.10
2022-12-04T09:36:22.415Z,42.55
2022-12-04T09:38:53.263Z,44.86
2022-12-04T09:41:48.107Z,43.91
2022-12-04T09:44:19.642Z,45.57
2022-12-04T09:47:12.362Z,43.73
2022-12-04T09:49:48.014Z,43.44
2022-12-04T09:52:31.275Z,44.41
2022-12-04T09:55:01.150Z,46.59
2022-12-04T09:57:38.927Z,47.36
2022-12-04T10:00:16.705Z,48.61
2022-12-04T10:02:52.189Z,49.64
2022-12-04T10:05:32.512Z,49.01
2022-12-04T10:08:08.275Z,48.51
2022-12-04T10:11:00.749Z,49.50
2022-12-04T10:13:28.922Z,50.40
2022-12-04T10:16:42.073Z,50.63
2022-12-04T10:19:36.850Z,52.30
2022-12-04T10:22:16.596Z,53.04
2022-12-04T10:24:44.626Z,54.07
2022-12-04T10:27:26.601Z,55.45
2022-12-04T10:30:04.481Z,56.04
2022-12-04T10:32:34.166Z,56.84
2022-12-04T10:35:29.589Z,57.37
2022-12-04T10:38:04.992Z,57.64
2022-12-04T10:41:14.846Z,58.05
2022-12-04T10:43:46.346Z,58.82
2022-12-04T10:46:29.430Z,59.22
2022-12-04T10:49:13.359Z,59.71
2022-12-04T10:51:44.046Z,60.39
2022-12-04T10:54:24.199Z,60.91
2022-12-04T10:57:00.054Z,61.54
2022-12-04T10:59:29.557Z,62.07
2022-12-04T11:02:16.372Z,62.92
2022-12-04T11:04:52.817Z,63.10
2022-12-04T11:07:28.082Z,63.61
2022-12-04T11:10:18.535Z,64.29
2022-12-04T11:13:00.846Z,64.11
2022-12-04T11:15:29.770Z,64.45
2022-12-04T11:18:09.412Z,64.98
2022-12-04T11:20:37.612Z,64.90
2022-12-04T11:23:05.968Z,65.03
2022-12-04T11:25:47.175Z,65.17
2022-12-04T11:28:40.744Z,65.32
2022-12-04T11:31:11.029Z,65.30
2022-12-04T11:33:45.152Z,65.22
2022-12-04T11:36:25.384Z,65.36
2022-12-04T11:39:04.468Z,65.46
2022-12-04T11:41:33.151Z,65.36
2022-12-04T11:44:01.462Z,65.44
2022-12-04T11:46:34.328Z,65.60
2022-12-04T11:49:03.927Z,65.69
2022-12-04T11:52:06.170Z,65.77
2022-12-04T11:55:00.609Z,66.04
2022-12-04T11:57:31.907Z,66.05
2022-12-04T12:00:16.509Z,66.08
2022-12-04T12:03:10.963Z,66.12
2022-12-04T12:06:17.521Z,66.18
2022-12-04T12:09:19.667Z,66.11
2022-12-04T12:11:57.264Z,65.83
2022-12-04T12:14:54.264Z,65.66
2022-12-04T12:18:10.650Z,65.00
2022-12-04T12:20:53.601Z,63.81
2022-12-04T12:23:36.999Z,62.64
2022-12-04T12:26:14.681Z,62.46
2022-12-04T12:29:04.484Z,62.22
2022-12-04T12:31:41.527Z,60.84
2022-12-04T12:34:23.155Z,60.75
2022-12-04T12:36:59.278Z,60.83
2022-12-04T12:40:06.257Z,60.83
2022-12-04T12:42:49.952Z,60.88
2022-12-04T12:45:39.135Z,60.91
2022-12-04T12:48:45.885Z,60.72
2022-12-04T12:51:42.219Z,60.50
2022-12-04T12:54:28.824Z,60.65
2022-12-04T12:57:09.389Z,60.16
2022-12-04T12:59:42.584Z,59.39
2022-12-04T13:02:26.180Z,59.46
2022-12-04T13:04:59.310Z,57.97
2022-12-04T13:07:54.362Z,58.26
2022-12-04T13:11:12.690Z,57.99
2022-12-04T13:13:45.921Z,58.04
2022-12-04T13:16:26.287Z,57.87
2022-12-04T13:19:19.271Z,58.05
2022-12-04T13:21:47.241Z,57.79
2022-12-04T13:24:37.517Z,58.12
2022-12-04T13:27:42.984Z,58.20
2022-12-04T13:30:21.705Z,58.65
2022-12-04T13:32:49.677Z,59.15
2022-12-04T13:35:46.264Z,59.83
2022-12-04T13:38:20.086Z,60.69
2022-12-04T13:41:11.037Z,61.35
2022-12-04T13:43:42.391Z,62.51
2022-12-04T13:46:34.250Z,63.00
2022-12-04T13:49:30.169Z,63.37
2022-12-04T13:52:00.222Z,64.41
2022-12-04T13:54:31.338Z,64.86
2022-12-04T13:57:14.858Z,65.34
2022-12-04T13:59:44.593Z,65.36
2022-12-04T14:02:38.422Z,66.00
2022-12-04T14:05:11.559Z,66.27
2022-12-04T14:08:19.494Z,66.43
2022-12-04T14:11:05.934Z,67.11
2022-12-04T14:13:47.325Z,67.85
2022-12-04T14:16:30.898Z,67.80
2022-12-04T14:19:02.029Z,68.12
2022-12-04T14:22:00.239Z,69.16
2022-12-04T14:24:39.296Z,68.92
2022-12-04T14:27:35.022Z,68.64
2022-12-04T14:30:04.417Z,69.01
2022-12-04T14:32:35.667Z,69.34
2022-12-04T14:35:04.245Z,69.96
2022-12-04T14:37:38.285Z,69.77
2022-12-04T14:40:16.411Z,70.16
2022-12-04T14:42:49.272Z,70.51
2022-12-04T14:45:38.945Z,70.88
2022-12-04T14:48:09.862Z,70.63
2022-12-04T14:50:46.873Z,70.91
2022-12-04T14:53:35.313Z,71.62
2022-12-04T14:56:40.864Z,72.23
2022-12-04T14:59:21.612Z,72.52
2022-12-04T15:01:52.570Z,72.45
2022-12-04T15:04:29.492Z,72.51
2022-12-04T15:07:00.580Z,71.85
2022-12-04T15:09:48.346Z,72.79
2022-12-04T15:12:35.140Z,72.41
2022-12-04T15:15:13.020Z,73.14
2022-12-04T15:17:41.340Z,73.60
2022-12-04T15:20:14.591Z,73.08
2022-12-04T15:22:43.688Z,74.34
2022-12-04T15:25:24.459Z,74.05
2022-12-04T15:27:59.176Z,74.17
2022-12-04T15:30:30.927Z,74.39
2022-12-04T15:32:59.425Z,74.76
2022-12-04T15:35:33.027Z,74.95
2022-12-04T15:38:01.782Z,74.68
2022-12-04T15:40:30.911Z,74.12
2022-12-04T15:43:17.118Z,74.25
2022-12-04T15:45:45.392Z,74.47
2022-12-04T15:48:23.902Z,74.55
2022-12-04T15:51:04.573Z,74.60
2022-12-04T15:53:37.357Z,74.72
2022-12-04T15:56:16.380Z,75.10
2022-12-04T15:59:02.782Z,74.80
2022-12-04T16:01:41.182Z,74.92
2022-12-04T16:04:22.448Z,75.03
2022-12-04T16:06:54.507Z,74.83
2022-12-04T16:09:26.067Z,74.68
2022-12-04T16:12:03.375Z,74.78
2022-12-04T16:14:31.524Z,74.79
2022-12-04T16:17:05.793Z,74.19
2022-12-04T16:19:41.405Z,73.86
2022-12-04T16:22:20.717Z,74.33
2022-12-04T16:24:49.209Z,74.17
2022-12-04T16:27:20.353Z,74.25
2022-12-04T16:29:50.172Z,74.77
2022-12-04T16:32:21.084Z,74.89
2022-12-04T16:34:49.794Z,75.17
2022-12-04T16:37:20.965Z,75.20
2022-12-04T16:39:49.349Z,75.20
2022-12-04T16:42:17.384Z,75.69
2022-12-04T16:44:46.155Z,75.27
2022-12-04T16:47:15.200Z,75.61
2022-12-04T16:49:45.399Z,75.82
2022-12-04T16:52:14.789Z,75.95
2022-12-04T16:54:42.863Z,76.21
2022-12-04T16:57:11.244Z,76.47
2022-12-04T16:59:39.520Z,76.57
2022-12-04T17:02:26.228Z,76.30
2022-12-04T17:04:57.438Z,75.56
2022-12-04T17:07:26.058Z,76.24
2022-12-04T17:09:54.183Z,76.49
2022-12-04T17:12:22.366Z,76.69
2022-12-04T17:14:50.683Z,76.79
2022-12-04T17:17:18.702Z,76.67
2022-12-04T17:19:47.034Z,76.54
2022-12-04T17:22:16.445Z,76.33
2022-12-04T17:24:50.247Z,76.61
2022-12-04T17:27:23.756Z,76.83
2022-12-04T17:29:51.960Z,76.46
2022-12-04T17:32:20.093Z,75.90
2022-12-04T17:34:48.373Z,76.33
2022-12-04T17:37:16.547Z,76.40
2022-12-04T17:39:44.724Z,76.35
2022-12-04T17:42:13.151Z,76.33
2022-12-04T17:44:41.128Z,76.84
2022-12-04T17:47:09.658Z,76.47
2022-12-04T17:49:38.111Z,76.55
2022-12-04T17:52:06.355Z,76.32
2022-12-04T17:54:35.066Z,76.44
2022-12-04T17:57:03.473Z,76.31
2022-12-04T17:59:31.714Z,76.29
2022-12-04T18:01:59.928Z,76.50
2022-12-04T18:04:28.305Z,76.35
2022-12-04T18:06:56.648Z,76.26
2022-12-04T18:09:24.760Z,76.50
2022-12-04T18:11:52.840Z,76.18
2022-12-04T18:14:23.946Z,76.29
2022-12-04T18:16:54.263Z,76.25
2022-12-04T18:19:24.824Z,76.07
2022-12-04T18:21:54.432Z,76.06
2022-12-04T18:24:23.947Z,76.15
2022-12-04T18:26:52.730Z,76.12
2022-12-04T18:29:25.100Z,76.06
2022-12-04T18:31:53.424Z,76.17
2022-12-04T18:34:22.134Z,76.27
2022-12-04T18:36:50.858Z,76.33
2022-12-04T18:39:22.199Z,76.30
2022-12-04T18:41:51.538Z,76.14
2022-12-04T18:44:19.780Z,75.86
2022-12-04T18:46:47.751Z,75.86
2022-12-04T18:49:15.926Z,76.01
2022-12-04T18:51:49.594Z,76.35
2022-12-04T18:54:21.278Z,76.28
2022-12-04T18:56:49.722Z,76.41
2022-12-04T18:59:26.437Z,76.36
2022-12-04T19:01:55.974Z,77.45
2022-12-04T19:04:25.858Z,77.78
2022-12-04T19:06:56.199Z,77.58
2022-12-04T19:09:54.395Z,77.32
2022-12-04T19:12:16.193Z,77.50
2022-12-04T19:14:44.362Z,77.56
2022-12-04T19:17:12.511Z,77.18
2022-12-04T19:19:41.021Z,76.97
2022-12-04T19:22:09.111Z,76.95
2022-12-04T19:24:37.396Z,76.56
2022-12-04T19:27:11.623Z,76.12
2022-12-04T19:29:40.792Z,75.82
2022-12-04T19:32:10.880Z,75.41
2022-12-04T19:34:39.007Z,76.12
2022-12-04T19:37:07.825Z,76.29
2022-12-04T19:39:37.700Z,76.46
2022-12-04T19:42:06.083Z,76.18
2022-12-04T19:44:50.086Z,75.94
2022-12-04T19:47:19.144Z,75.43
2022-12-04T19:49:47.274Z,75.33
2022-12-04T19:52:15.519Z,75.60
2022-12-04T19:54:43.716Z,76.04
2022-12-04T19:57:12.929Z,76.44
2022-12-04T19:59:57.484Z,76.82
2022-12-04T20:02:25.702Z,76.95
2022-12-04T20:04:54.639Z,77.21
2022-12-04T20:07:23.019Z,77.32
2022-12-04T20:09:52.607Z,77.17
2022-12-04T20:12:21.132Z,77.27
2022-12-04T20:14:49.207Z,77.05
2022-12-04T20:17:17.466Z,76.76
2022-12-04T20:19:45.720Z,77.23
2022-12-04T20:22:13.810Z,77.22
2022-12-04T20:24:43.210Z,77.35
2022-12-04T20:27:12.105Z,77.27
2022-12-04T20:29:40.188Z,77.28
2022-12-04T20:32:08.251Z,77.09
2022-12-04T20:34:43.071Z,77.10
2022-12-04T20:37:11.949Z,77.37
2022-12-04T20:39:40.490Z,77.76
2022-12-04T20:42:08.498Z,78.08
2022-12-04T20:44:47.393Z,77.98
2022-12-04T20:47:16.308Z,78.66
2022-12-04T20:49:44.274Z,79.04
2022-12-04T20:52:12.390Z,78.72
2022-12-04T20:54:41.707Z,78.90
2022-12-04T20:57:10.639Z,78.95
2022-12-04T20:59:38.681Z,79.06
2022-12-04T21:02:07.205Z,79.51
2022-12-04T21:04:37.957Z,79.67
2022-12-04T21:07:06.721Z,79.29
2022-12-04T21:09:34.799Z,79.15
2022-12-04T21:12:24.279Z,79.17
2022-12-04T21:15:11.285Z,79.13
2022-12-04T21:17:40.486Z,79.47
2022-12-04T21:20:10.935Z,79.60
2022-12-04T21:22:39.597Z,79.39
2022-12-04T21:25:09.034Z,79.18
2022-12-04T21:27:37.276Z,79.20
2022-12-04T21:30:08.401Z,79.30
2022-12-04T21:32:36.590Z,79.30
2022-12-04T21:35:05.176Z,79.26
2022-12-04T21:37:34.578Z,79.43
2022-12-04T21:40:03.885Z,79.65
2022-12-04T21:42:32.571Z,79.42
2022-12-04T21:45:02.395Z,79.46
2022-12-04T21:47:31.415Z,79.50
2022-12-04T21:49:59.820Z,79.61
2022-12-04T21:52:28.183Z,79.59
2022-12-04T21:54:56.928Z,79.41
2022-12-04T21:57:25.103Z,79.75
2022-12-04T21:59:53.171Z,79.91
2022-12-04T22:02:21.515Z,79.66
2022-12-04T22:04:49.925Z,79.17
2022-12-04T22:07:18.413Z,79.74
2022-12-04T22:09:48.258Z,79.65
2022-12-04T22:15:05.045Z,79.75
2022-12-04T22:17:33.016Z,79.98
2022-12-04T22:20:00.994Z,80.00
2022-12-04T22:22:29.331Z,80.40
2022-12-04T22:24:59.383Z,80.37
2022-12-04T22:27:29.401Z,80.08
2022-12-04T22:29:57.679Z,80.36
2022-12-04T22:32:25.767Z,80.52
2022-12-04T22:34:53.931Z,80.57
2022-12-04T22:37:21.912Z,80.36
2022-12-04T22:39:49.994Z,80.00
2022-12-04T22:42:17.960Z,80.32
2022-12-04T22:44:46.028Z,80.42
2022-12-04T22:47:14.180Z,80.32
2022-12-04T22:49:42.661Z,80.10
2022-12-04T22:52:10.776Z,80.06
2022-12-04T22:54:38.807Z,80.17
2022-12-04T22:57:07.287Z,80.36
2022-12-04T22:59:35.361Z,80.25
2022-12-04T23:02:03.943Z,80.04
2022-12-04T23:04:32.271Z,80.12
2022-12-04T23:07:00.406Z,80.19
2022-12-04T23:09:28.573Z,80.27
2022-12-04T23:11:57.154Z,80.31
2022-12-04T23:14:27.311Z,80.45
2022-12-04T23:16:56.463Z,80.67
2022-12-04T23:19:24.474Z,80.64
2022-12-04T23:21:56.914Z,80.79
2022-12-04T23:24:26.184Z,80.84
2022-12-04T23:26:54.502Z,80.95
2022-12-04T23:29:51.573Z,80.85
2022-12-04T23:32:10.565Z,80.98
2022-12-04T23:34:38.984Z,81.08
2022-12-04T23:37:06.952Z,81.17
2022-12-04T23:39:35.128Z,81.20
2022-12-04T23:42:03.610Z,81.43
2022-12-04T23:44:31.687Z,81.55
2022-12-04T23:46:59.996Z,81.43
2022-12-04T23:49:28.242Z,81.11
2022-12-04T23:51:56.239Z,80.79
2022-12-04T23:54:24.290Z,80.95
2022-12-04T23:56:52.356Z,81.64
2022-12-04T23:59:22.170Z,81.75
